Latest Weather Observations for Busselton Jetty

IDW60801

Issued at 9:05 am WST Friday 29 August 2014 (issued every 30 minutes, with the page automatically refreshed every 10 minutes)

About weather observations | Map of weather stations | Latest weather observations for WA | Other Formats
Station Details ID: 009937 Name: BUSSELTON JETTY Lat: -33.63 Lon: 115.34 Height: 3.0 m
Data from the previous 72 hours. | See also: Recent months for locations in Western Australia
Date/Time
WST
Temp
°C
App
Temp
°C
Dew
Point
Rel
Hum
%
Delta-T
°C
Wind Press
QNH
hPa
Press
MSL
hPa
Rain
since 9 am
mm
Dir
 
Spd
km/h
Gust
km/h
Spd
kts
Gust
kts
29/09:00am - - - - - NNW 24 30 13 16 - - -
29/08:30am - - - - - WNW 20 26 11 14 - - -
29/08:00am - - - - - WNW 28 32 15 17 - - -
29/07:30am - - - - - W 28 33 15 18 - - -
29/07:00am - - - - - NW 24 28 13 15 - - -
29/06:30am - - - - - NW 24 28 13 15 - - -
29/06:00am - - - - - WNW 26 30 14 16 - - -
29/05:30am - - - - - NW 30 35 16 19 - - -
29/05:00am - - - - - N 32 37 17 20 - - -
29/04:30am - - - - - NNW 39 44 21 24 - - -
29/04:00am - - - - - NNW 33 43 18 23 - - -
29/03:30am - - - - - NNW 37 43 20 23 - - -
29/03:00am - - - - - NNW 43 52 23 28 - - -
29/02:30am - - - - - NNW 41 50 22 27 - - -
29/02:00am - - - - - N 37 43 20 23 - - -
29/01:30am - - - - - N 41 50 22 27 - - -
29/01:00am - - - - - N 35 48 19 26 - - -
29/12:30am - - - - - NNW 46 56 25 30 - - -
29/12:00am - - - - - N 33 41 18 22 - - -
 
Date/Time
WST
Temp
°C
App
Temp
°C
Dew
Point
Rel
Hum
%
Delta-T
°C
Wind Press
QNH
hPa
Press
MSL
hPa
Rain
since 9 am
mm
Dir
 
Spd
km/h
Gust
km/h
Spd
kts
Gust
kts
28/11:30pm - - - - - N 33 41 18 22 - - -
28/11:00pm - - - - - NNW 33 39 18 21 - - -
28/10:30pm - - - - - N 30 37 16 20 - - -
28/10:00pm - - - - - NNW 41 48 22 26 - - -
28/09:30pm - - - - - NNW 35 43 19 23 - - -
28/09:22pm - - - - - NNW 39 43 21 23 - - -
28/09:07pm - - - - - WNW 46 50 25 27 - - -
28/09:00pm - - - - - N 43 48 23 26 - - -
28/08:30pm - - - - - N 44 54 24 29 - - -
28/08:00pm - - - - - N 39 54 21 29 - - -
28/07:30pm - - - - - N 43 52 23 28 - - -
28/07:00pm - - - - - N 37 43 20 23 - - -
28/06:30pm - - - - - N 39 48 21 26 - - -
28/06:00pm - - - - - N 39 46 21 25 - - -
28/05:30pm - - - - - N 43 50 23 27 - - -
28/05:00pm - - - - - N 41 48 22 26 - - -
28/04:30pm - - - - - N 41 50 22 27 - - -
28/04:00pm - - - - - N 39 46 21 25 - - -
28/03:30pm - - - - - N 30 35 16 19 - - -
28/03:00pm - - - - - N 32 35 17 19 - - -
28/02:30pm - - - - - N 24 33 13 18 - - -
28/02:00pm - - - - - NW 37 48 20 26 - - -
28/01:33pm - - - - - NW 41 50 22 27 - - -
28/01:30pm - - - - - N 39 46 21 25 - - -
28/01:00pm - - - - - N 37 41 20 22 - - -
28/12:30pm - - - - - N 37 46 20 25 - - -
28/12:00pm - - - - - N 35 43 19 23 - - -
28/11:30am - - - - - N 39 46 21 25 - - -
28/11:00am - - - - - N 37 43 20 23 - - -
28/10:30am - - - - - N 39 44 21 24 - - -
28/10:00am - - - - - N 41 48 22 26 - - -
28/09:30am - - - - - N 37 43 20 23 - - -
28/09:00am - - - - - N 39 46 21 25 - - -
28/08:30am - - - - - N 37 41 20 22 - - -
28/08:00am - - - - - N 37 43 20 23 - - -
28/07:30am - - - - - N 37 43 20 23 - - -
28/07:00am - - - - - N 37 43 20 23 - - -
28/06:30am - - - - - N 35 41 19 22 - - -
28/06:00am - - - - - N 37 43 20 23 - - -
28/05:30am - - - - - N 41 48 22 26 - - -
28/05:00am - - - - - NNE 35 39 19 21 - - -
28/04:30am - - - - - NNE 37 44 20 24 - - -
28/04:00am - - - - - NNE 37 43 20 23 - - -
28/03:30am - - - - - NE 35 41 19 22 - - -
28/03:00am - - - - - NE 35 41 19 22 - - -
28/02:30am - - - - - NE 33 39 18 21 - - -
28/02:00am - - - - - NE 32 37 17 20 - - -
28/01:30am - - - - - NE 30 33 16 18 - - -
28/01:00am - - - - - NNE 30 32 16 17 - - -
28/12:30am - - - - - NNE 28 32 15 17 - - -
28/12:00am - - - - - NNE 24 30 13 16 - - -
 
Date/Time
WST
Temp
°C
App
Temp
°C
Dew
Point
Rel
Hum
%
Delta-T
°C
Wind Press
QNH
hPa
Press
MSL
hPa
Rain
since 9 am
mm
Dir
 
Spd
km/h
Gust
km/h
Spd
kts
Gust
kts
27/11:30pm - - - - - N 26 28 14 15 - - -
27/11:00pm - - - - - N 24 26 13 14 - - -
27/10:30pm - - - - - N 24 26 13 14 - - -
27/10:00pm - - - - - N 24 30 13 16 - - -
27/09:30pm - - - - - N 24 28 13 15 - - -
27/09:00pm - - - - - N 28 32 15 17 - - -
27/08:30pm - - - - - NNW 28 35 15 19 - - -
27/08:00pm - - - - - N 28 33 15 18 - - -
27/07:30pm - - - - - NNW 32 37 17 20 - - -
27/07:00pm - - - - - NNW 33 39 18 21 - - -
27/06:30pm - - - - - NNW 39 44 21 24 - - -
27/06:00pm - - - - - NNW 39 46 21 25 - - -
27/05:30pm - - - - - NNW 35 44 19 24 - - -
27/05:00pm - - - - - NNW 33 39 18 21 - - -
27/04:30pm - - - - - NNW 37 44 20 24 - - -
27/04:00pm - - - - - N 33 39 18 21 - - -
27/03:30pm - - - - - NNE 30 37 16 20 - - -
27/03:00pm - - - - - NNE 30 33 16 18 - - -
27/02:30pm - - - - - N 30 33 16 18 - - -
27/02:00pm - - - - - NNE 28 32 15 17 - - -
27/01:30pm - - - - - NNE 28 32 15 17 - - -
27/01:00pm - - - - - N 30 35 16 19 - - -
27/12:30pm - - - - - N 20 28 11 15 - - -
27/12:00pm - - - - - ENE 20 28 11 15 - - -
27/11:30am - - - - - ENE 24 28 13 15 - - -
27/11:00am - - - - - ENE 20 24 11 13 - - -
27/10:30am - - - - - ENE 19 22 10 12 - - -
27/10:00am - - - - - ESE 13 15 7 8 - - -
27/09:30am - - - - - E 13 17 7 9 - - -
27/09:00am - - - - - ENE 13 15 7 8 - - -
27/08:30am - - - - - SSE 11 15 6 8 - - -
27/08:00am - - - - - SSE 11 15 6 8 - - -
27/07:30am - - - - - S 9 13 5 7 - - -
27/07:00am - - - - - ESE 15 19 8 10 - - -
27/06:30am - - - - - E 13 15 7 8 - - -
27/06:00am - - - - - SE 11 15 6 8 - - -
27/05:30am - - - - - SSW 9 11 5 6 - - -
27/05:00am - - - - - S 6 9 3 5 - - -
27/04:30am - - - - - SE 9 11 5 6 - - -
27/04:00am - - - - - SE 15 19 8 10 - - -
27/03:30am - - - - - SE 17 20 9 11 - - -
27/03:00am - - - - - SE 15 19 8 10 - - -
27/02:30am - - - - - SE 15 19 8 10 - - -
27/02:00am - - - - - SE 17 19 9 10 - - -
27/01:30am - - - - - SE 17 20 9 11 - - -
27/01:00am - - - - - SE 17 20 9 11 - - -
27/12:30am - - - - - SSE 17 20 9 11 - - -
27/12:00am - - - - - S 17 19 9 10 - - -
 
Date/Time
WST
Temp
°C
App
Temp
°C
Dew
Point
Rel
Hum
%
Delta-T
°C
Wind Press
QNH
hPa
Press
MSL
hPa
Rain
since 9 am
mm
Dir
 
Spd
km/h
Gust
km/h
Spd
kts
Gust
kts
26/11:30pm - - - - - S 17 20 9 11 - - -
26/11:00pm - - - - - SSE 17 19 9 10 - - -
26/10:30pm - - - - - SSE 20 22 11 12 - - -
26/10:00pm - - - - - SSE 24 28 13 15 - - -
26/09:30pm - - - - - S 20 24 11 13 - - -
26/09:00pm - - - - - S 19 22 10 12 - - -
26/08:30pm - - - - - S 17 19 9 10 - - -
26/08:00pm - - - - - S 15 19 8 10 - - -
26/07:30pm - - - - - S 17 19 9 10 - - -
26/07:00pm - - - - - SSW 17 19 9 10 - - -
26/06:30pm - - - - - SW 19 20 10 11 - - -
26/06:00pm - - - - - SW 17 20 9 11 - - -
26/05:30pm - - - - - SW 20 26 11 14 - - -
26/05:00pm - - - - - SW 17 22 9 12 - - -
26/04:30pm - - - - - WSW 13 15 7 8 - - -
26/04:00pm - - - - - WSW 15 19 8 10 - - -
26/03:30pm - - - - - WNW 6 13 3 7 - - -
26/03:00pm - - - - - WSW 11 20 6 11 - - -
26/02:30pm - - - - - WSW 11 15 6 8 - - -
26/02:00pm - - - - - W 11 15 6 8 - - -
26/01:30pm - - - - - WSW 19 28 10 15 - - -
26/01:00pm - - - - - SW 20 26 11 14 - - -
26/12:30pm - - - - - W 17 24 9 13 - - -
26/12:00pm - - - - - WSW 19 26 10 14 - - -
26/11:30am - - - - - WSW 22 32 12 17 - - -
26/11:00am - - - - - SW 22 28 12 15 - - -
26/10:30am - - - - - SW 24 32 13 17 - - -
26/10:00am - - - - - SW 24 32 13 17 - - -
26/09:30am - - - - - SW 13 19 7 10 - - -

Other Formats:

Comma delimited format used in spreadsheet applications
http://www.bom.gov.au/fwo/IDW60801/IDW60801.95602.axf

JavaScript Object Notation format (JSON) in row-major order
http://www.bom.gov.au/fwo/IDW60801/IDW60801.95602.json